createdAt,value
2022-10-20T00:00:00.156Z,1033.40
2022-10-20T00:10:00.176Z,1033.40
2022-10-20T00:20:01.075Z,1033.37
2022-10-20T00:30:01.536Z,1033.34
2022-10-20T00:40:00.837Z,1033.29
2022-10-20T00:50:00.143Z,1033.08
2022-10-20T01:00:01.357Z,1032.93
2022-10-20T01:10:01.084Z,1032.94
2022-10-20T01:20:01.689Z,1032.92
2022-10-20T01:30:00.129Z,1032.89
2022-10-20T01:40:01.265Z,1032.76
2022-10-20T01:50:00.983Z,1032.62
2022-10-20T02:00:01.005Z,1032.50
2022-10-20T02:10:01.208Z,1032.29
2022-10-20T02:20:00.178Z,1032.15
2022-10-20T02:30:03.604Z,1032.15
2022-10-20T02:40:01.035Z,1032.11
2022-10-20T02:50:01.015Z,1032.02
2022-10-20T03:00:00.961Z,1032.02
2022-10-20T03:10:01.035Z,1031.94
2022-10-20T03:20:01.455Z,1031.86
2022-10-20T03:30:01.839Z,1031.76
2022-10-20T03:40:01.300Z,1031.72
2022-10-20T03:50:00.211Z,1031.66
2022-10-20T04:00:01.025Z,1031.71
2022-10-20T04:10:00.124Z,1031.59
2022-10-20T04:20:01.060Z,1031.49
2022-10-20T04:30:00.999Z,1031.42
2022-10-20T04:40:00.165Z,1031.25
2022-10-20T04:50:00.953Z,1031.18
2022-10-20T05:00:01.342Z,1031.10
2022-10-20T05:10:01.679Z,1031.08
2022-10-20T05:20:01.074Z,1030.97
2022-10-20T05:30:01.357Z,1030.96
2022-10-20T05:40:01.249Z,1031.04
2022-10-20T05:50:00.139Z,1031.04
2022-10-20T06:00:01.047Z,1030.99
2022-10-20T06:10:01.037Z,1031.10
2022-10-20T06:20:01.283Z,1031.12
2022-10-20T06:30:01.000Z,1031.04
2022-10-20T06:40:01.647Z,1030.97
2022-10-20T06:50:00.127Z,1030.93
2022-10-20T07:00:00.998Z,1030.82
2022-10-20T07:10:00.962Z,1030.82
2022-10-20T07:20:01.257Z,1030.80
2022-10-20T07:30:01.270Z,1030.70
2022-10-20T07:40:01.005Z,1030.55
2022-10-20T07:50:01.061Z,1030.40
2022-10-20T08:00:00.141Z,1030.30
2022-10-20T08:10:00.171Z,1030.13
2022-10-20T08:30:19.305Z,1029.88
2022-10-20T08:40:01.568Z,1029.77
2022-10-20T08:50:01.200Z,1029.80
2022-10-20T09:10:01.883Z,1029.59
2022-10-20T09:20:01.029Z,1029.57
2022-10-20T09:30:01.222Z,1029.34
2022-10-20T09:40:00.147Z,1029.18
2022-10-20T09:50:02.462Z,1029.03
2022-10-20T10:00:08.690Z,1028.83
2022-10-20T10:10:02.547Z,1028.66
2022-10-20T10:20:01.246Z,1028.45
2022-10-20T10:30:00.136Z,1028.29
2022-10-20T10:40:01.028Z,1028.02
2022-10-20T10:50:01.306Z,1027.92
2022-10-20T11:00:00.169Z,1027.68
2022-10-20T11:10:00.142Z,1027.59
2022-10-20T11:20:02.728Z,1027.34
2022-10-20T11:30:01.509Z,1027.12
2022-10-20T11:40:03.143Z,1026.96
2022-10-20T11:50:01.061Z,1026.88
2022-10-20T12:00:01.065Z,1026.76
2022-10-20T12:10:01.064Z,1026.71
2022-10-20T12:20:01.036Z,1026.63
2022-10-20T12:30:01.118Z,1026.49
2022-10-20T12:40:01.255Z,1026.24
2022-10-20T12:50:03.078Z,1026.30
2022-10-20T13:00:01.076Z,1026.22
2022-10-20T13:10:01.900Z,1025.96
2022-10-20T13:20:01.537Z,1025.82
2022-10-20T13:30:01.359Z,1025.78
2022-10-20T13:40:00.205Z,1025.56
2022-10-20T13:50:03.010Z,1025.45
2022-10-20T14:00:03.022Z,1025.42
2022-10-20T14:10:01.199Z,1025.29
2022-10-20T14:20:01.070Z,1025.37
2022-10-20T14:30:01.246Z,1025.42
2022-10-20T14:40:01.257Z,1025.37
2022-10-20T14:50:01.363Z,1025.28
2022-10-20T15:00:01.032Z,1024.99
2022-10-20T15:10:05.119Z,1024.85
2022-10-20T15:20:01.268Z,1024.90
2022-10-20T15:30:01.271Z,1024.88
2022-10-20T16:00:01.615Z,1024.41
2022-10-20T16:10:01.514Z,1024.26
2022-10-20T16:20:00.175Z,1024.25
2022-10-20T16:30:01.086Z,1024.52
2022-10-20T16:40:01.056Z,1024.52
2022-10-20T16:50:02.470Z,1024.40
2022-10-20T17:00:01.500Z,1024.44
2022-10-20T17:10:01.842Z,1024.11
2022-10-20T17:20:01.017Z,1024.05
2022-10-20T17:30:01.241Z,1023.90
2022-10-20T17:40:02.739Z,1023.70
2022-10-20T17:50:00.258Z,1023.82
2022-10-20T18:00:03.255Z,1023.75
2022-10-20T18:10:01.367Z,1023.92
2022-10-20T18:20:00.160Z,1023.76
2022-10-20T18:30:01.615Z,1023.26
2022-10-20T18:40:01.038Z,1023.03
2022-10-20T18:50:00.986Z,1023.08
2022-10-20T19:00:01.241Z,1023.09
2022-10-20T19:10:01.045Z,1022.92
2022-10-20T19:20:01.245Z,1022.88
2022-10-20T19:30:00.172Z,1022.87
2022-10-20T19:40:01.078Z,1022.97
2022-10-20T19:50:01.019Z,1022.81
2022-10-20T20:00:01.318Z,1022.76
2022-10-20T20:10:01.023Z,1022.63
2022-10-20T20:20:00.985Z,1022.56
2022-10-20T20:30:00.154Z,1022.44
2022-10-20T20:40:01.542Z,1022.34
2022-10-20T20:50:01.554Z,1022.37
2022-10-20T21:00:03.352Z,1022.36
2022-10-20T21:10:01.055Z,1022.32
2022-10-20T21:20:01.239Z,1022.21
2022-10-20T21:30:01.042Z,1022.07
2022-10-20T21:40:01.032Z,1022.01
2022-10-20T21:50:01.917Z,1022.28
2022-10-20T22:00:01.189Z,1022.18
2022-10-20T22:10:01.120Z,1022.12
2022-10-20T22:20:01.915Z,1022.00
2022-10-20T22:30:01.565Z,1022.04
2022-10-20T22:40:01.053Z,1022.13
2022-10-20T22:50:00.153Z,1022.31
2022-10-20T23:00:00.119Z,1022.26
2022-10-20T23:10:01.266Z,1022.27
2022-10-20T23:20:00.139Z,1022.16
2022-10-20T23:30:00.139Z,1022.18
2022-10-20T23:40:01.247Z,1022.12
2022-10-20T23:50:01.274Z,1021.82
